sensor_id;sensor_type;location;lat;lon;timestamp;P1;durP1;ratioP1;P2;durP2;ratioP2
67248;SDS011;54162;54.300;18.592;2022-08-21T00:02:25;27.23;;;15.93;;
67248;SDS011;54162;54.300;18.592;2022-08-21T00:04:53;27.23;;;16.27;;
67248;SDS011;54162;54.300;18.592;2022-08-21T00:07:19;26.55;;;16.13;;
67248;SDS011;54162;54.300;18.592;2022-08-21T00:09:45;23.75;;;14.93;;
67248;SDS011;54162;54.300;18.592;2022-08-21T00:12:11;23.63;;;14.80;;
67248;SDS011;54162;54.300;18.592;2022-08-21T00:14:36;23.63;;;14.23;;
67248;SDS011;54162;54.300;18.592;2022-08-21T00:17:03;25.83;;;15.18;;
67248;SDS011;54162;54.300;18.592;2022-08-21T00:19:29;22.15;;;14.57;;
67248;SDS011;54162;54.300;18.592;2022-08-21T00:21:56;24.92;;;15.40;;
67248;SDS011;54162;54.300;18.592;2022-08-21T00:24:21;24.43;;;14.80;;
67248;SDS011;54162;54.300;18.592;2022-08-21T00:26:48;23.38;;;14.52;;
67248;SDS011;54162;54.300;18.592;2022-08-21T00:29:14;23.42;;;14.55;;
67248;SDS011;54162;54.300;18.592;2022-08-21T00:31:41;20.98;;;12.73;;
67248;SDS011;54162;54.300;18.592;2022-08-21T00:34:07;18.92;;;12.30;;
67248;SDS011;54162;54.300;18.592;2022-08-21T00:36:33;17.65;;;11.60;;
67248;SDS011;54162;54.300;18.592;2022-08-21T00:38:59;32.97;;;12.25;;
67248;SDS011;54162;54.300;18.592;2022-08-21T00:41:25;19.88;;;11.30;;
67248;SDS011;54162;54.300;18.592;2022-08-21T00:43:51;19.55;;;11.63;;
67248;SDS011;54162;54.300;18.592;2022-08-21T00:46:17;17.27;;;11.18;;
67248;SDS011;54162;54.300;18.592;2022-08-21T00:48:43;15.97;;;10.87;;
67248;SDS011;54162;54.300;18.592;2022-08-21T00:51:19;17.03;;;11.10;;
67248;SDS011;54162;54.300;18.592;2022-08-21T00:53:51;15.30;;;10.13;;
67248;SDS011;54162;54.300;18.592;2022-08-21T00:56:21;16.52;;;10.18;;
67248;SDS011;54162;54.300;18.592;2022-08-21T00:58:49;14.43;;;9.60;;
67248;SDS011;54162;54.300;18.592;2022-08-21T01:01:16;15.45;;;10.18;;
67248;SDS011;54162;54.300;18.592;2022-08-21T01:03:41;13.80;;;9.67;;
67248;SDS011;54162;54.300;18.592;2022-08-21T01:06:07;14.97;;;9.43;;
67248;SDS011;54162;54.300;18.592;2022-08-21T01:08:34;16.10;;;9.90;;
67248;SDS011;54162;54.300;18.592;2022-08-21T01:11:00;15.30;;;10.27;;
67248;SDS011;54162;54.300;18.592;2022-08-21T01:13:27;15.73;;;10.60;;
67248;SDS011;54162;54.300;18.592;2022-08-21T01:15:55;18.08;;;11.75;;
67248;SDS011;54162;54.300;18.592;2022-08-21T01:18:24;16.50;;;10.88;;
67248;SDS011;54162;54.300;18.592;2022-08-21T01:21:10;15.50;;;10.07;;
67248;SDS011;54162;54.300;18.592;2022-08-21T01:23:38;15.95;;;10.38;;
67248;SDS011;54162;54.300;18.592;2022-08-21T01:26:07;15.38;;;10.00;;
67248;SDS011;54162;54.300;18.592;2022-08-21T01:28:36;16.15;;;10.60;;
67248;SDS011;54162;54.300;18.592;2022-08-21T01:31:08;16.95;;;11.05;;
67248;SDS011;54162;54.300;18.592;2022-08-21T01:33:35;19.63;;;11.07;;
67248;SDS011;54162;54.300;18.592;2022-08-21T01:36:01;18.05;;;11.70;;
67248;SDS011;54162;54.300;18.592;2022-08-21T01:38:27;19.10;;;12.30;;
67248;SDS011;54162;54.300;18.592;2022-08-21T01:40:53;20.43;;;12.57;;
67248;SDS011;54162;54.300;18.592;2022-08-21T01:43:18;18.77;;;11.90;;
67248;SDS011;54162;54.300;18.592;2022-08-21T01:45:44;18.13;;;11.90;;
67248;SDS011;54162;54.300;18.592;2022-08-21T01:48:09;17.50;;;11.53;;
67248;SDS011;54162;54.300;18.592;2022-08-21T01:50:35;17.83;;;11.33;;
67248;SDS011;54162;54.300;18.592;2022-08-21T01:53:01;18.50;;;11.30;;
67248;SDS011;54162;54.300;18.592;2022-08-21T01:55:27;17.25;;;10.88;;
67248;SDS011;54162;54.300;18.592;2022-08-21T01:57:52;18.57;;;11.00;;
67248;SDS011;54162;54.300;18.592;2022-08-21T02:00:20;18.73;;;10.95;;
67248;SDS011;54162;54.300;18.592;2022-08-21T02:02:48;17.70;;;10.90;;
67248;SDS011;54162;54.300;18.592;2022-08-21T02:05:14;15.90;;;10.02;;
67248;SDS011;54162;54.300;18.592;2022-08-21T02:07:41;13.68;;;9.27;;
67248;SDS011;54162;54.300;18.592;2022-08-21T02:10:10;14.70;;;9.73;;
67248;SDS011;54162;54.300;18.592;2022-08-21T02:12:39;12.75;;;8.65;;
67248;SDS011;54162;54.300;18.592;2022-08-21T02:15:05;12.50;;;8.48;;
67248;SDS011;54162;54.300;18.592;2022-08-21T02:17:45;13.55;;;9.02;;
67248;SDS011;54162;54.300;18.592;2022-08-21T02:20:24;14.30;;;9.10;;
67248;SDS011;54162;54.300;18.592;2022-08-21T02:23:01;14.32;;;9.18;;
67248;SDS011;54162;54.300;18.592;2022-08-21T02:25:28;15.32;;;9.52;;
67248;SDS011;54162;54.300;18.592;2022-08-21T02:27:54;15.93;;;9.77;;
67248;SDS011;54162;54.300;18.592;2022-08-21T02:30:25;14.85;;;10.15;;
67248;SDS011;54162;54.300;18.592;2022-08-21T02:32:53;15.87;;;10.10;;
67248;SDS011;54162;54.300;18.592;2022-08-21T02:35:19;16.80;;;9.98;;
67248;SDS011;54162;54.300;18.592;2022-08-21T02:37:49;16.45;;;10.30;;
67248;SDS011;54162;54.300;18.592;2022-08-21T02:40:18;14.97;;;9.87;;
67248;SDS011;54162;54.300;18.592;2022-08-21T02:42:45;16.67;;;10.85;;
67248;SDS011;54162;54.300;18.592;2022-08-21T02:45:11;15.15;;;10.10;;
67248;SDS011;54162;54.300;18.592;2022-08-21T02:47:37;16.80;;;10.38;;
67248;SDS011;54162;54.300;18.592;2022-08-21T02:50:04;17.38;;;10.88;;
67248;SDS011;54162;54.300;18.592;2022-08-21T02:52:31;17.20;;;10.40;;
67248;SDS011;54162;54.300;18.592;2022-08-21T02:54:57;18.10;;;10.95;;
67248;SDS011;54162;54.300;18.592;2022-08-21T02:57:22;18.17;;;10.43;;
67248;SDS011;54162;54.300;18.592;2022-08-21T02:59:48;17.33;;;10.73;;
67248;SDS011;54162;54.300;18.592;2022-08-21T03:02:14;18.10;;;11.00;;
67248;SDS011;54162;54.300;18.592;2022-08-21T03:04:39;17.20;;;10.90;;
67248;SDS011;54162;54.300;18.592;2022-08-21T03:07:05;20.33;;;11.60;;
67248;SDS011;54162;54.300;18.592;2022-08-21T03:09:30;17.23;;;11.33;;
67248;SDS011;54162;54.300;18.592;2022-08-21T03:11:56;16.63;;;10.90;;
67248;SDS011;54162;54.300;18.592;2022-08-21T03:14:22;18.33;;;11.27;;
67248;SDS011;54162;54.300;18.592;2022-08-21T03:16:48;16.83;;;10.93;;
67248;SDS011;54162;54.300;18.592;2022-08-21T03:19:14;16.92;;;10.52;;
67248;SDS011;54162;54.300;18.592;2022-08-21T03:21:40;16.58;;;11.07;;
67248;SDS011;54162;54.300;18.592;2022-08-21T03:24:06;18.07;;;11.13;;
67248;SDS011;54162;54.300;18.592;2022-08-21T03:26:32;18.33;;;11.70;;
67248;SDS011;54162;54.300;18.592;2022-08-21T03:28:57;17.43;;;10.70;;
67248;SDS011;54162;54.300;18.592;2022-08-21T03:31:23;16.73;;;10.65;;
67248;SDS011;54162;54.300;18.592;2022-08-21T03:33:51;19.00;;;11.52;;
67248;SDS011;54162;54.300;18.592;2022-08-21T03:36:19;20.33;;;11.98;;
67248;SDS011;54162;54.300;18.592;2022-08-21T03:38:45;19.90;;;11.45;;
67248;SDS011;54162;54.300;18.592;2022-08-21T03:41:11;19.10;;;11.52;;
67248;SDS011;54162;54.300;18.592;2022-08-21T03:43:37;17.02;;;10.93;;
67248;SDS011;54162;54.300;18.592;2022-08-21T03:46:04;18.15;;;11.40;;
67248;SDS011;54162;54.300;18.592;2022-08-21T03:48:31;18.35;;;11.35;;
67248;SDS011;54162;54.300;18.592;2022-08-21T03:50:57;19.40;;;11.50;;
67248;SDS011;54162;54.300;18.592;2022-08-21T03:53:23;18.67;;;11.23;;
67248;SDS011;54162;54.300;18.592;2022-08-21T03:55:50;18.00;;;11.63;;
67248;SDS011;54162;54.300;18.592;2022-08-21T03:58:18;18.75;;;11.48;;
67248;SDS011;54162;54.300;18.592;2022-08-21T04:00:46;17.17;;;11.23;;
67248;SDS011;54162;54.300;18.592;2022-08-21T04:03:15;19.70;;;11.75;;
67248;SDS011;54162;54.300;18.592;2022-08-21T04:05:42;18.73;;;11.67;;
67248;SDS011;54162;54.300;18.592;2022-08-21T04:08:10;18.27;;;11.40;;
67248;SDS011;54162;54.300;18.592;2022-08-21T04:10:36;19.38;;;11.55;;
67248;SDS011;54162;54.300;18.592;2022-08-21T04:13:04;20.17;;;11.25;;
67248;SDS011;54162;54.300;18.592;2022-08-21T04:15:30;21.15;;;11.82;;
67248;SDS011;54162;54.300;18.592;2022-08-21T04:17:55;17.80;;;10.97;;
67248;SDS011;54162;54.300;18.592;2022-08-21T04:20:21;21.63;;;10.93;;
67248;SDS011;54162;54.300;18.592;2022-08-21T04:22:48;17.25;;;10.52;;
67248;SDS011;54162;54.300;18.592;2022-08-21T04:25:16;20.13;;;10.82;;
67248;SDS011;54162;54.300;18.592;2022-08-21T04:27:43;19.83;;;10.63;;
67248;SDS011;54162;54.300;18.592;2022-08-21T04:30:09;19.83;;;10.93;;
67248;SDS011;54162;54.300;18.592;2022-08-21T04:32:36;19.80;;;10.80;;
67248;SDS011;54162;54.300;18.592;2022-08-21T04:35:04;17.73;;;10.55;;
67248;SDS011;54162;54.300;18.592;2022-08-21T04:37:33;19.80;;;10.40;;
67248;SDS011;54162;54.300;18.592;2022-08-21T04:39:59;22.35;;;11.80;;
67248;SDS011;54162;54.300;18.592;2022-08-21T04:42:25;19.85;;;10.45;;
67248;SDS011;54162;54.300;18.592;2022-08-21T04:44:52;19.70;;;10.63;;
67248;SDS011;54162;54.300;18.592;2022-08-21T04:47:18;19.75;;;11.50;;
67248;SDS011;54162;54.300;18.592;2022-08-21T04:49:44;20.70;;;11.93;;
67248;SDS011;54162;54.300;18.592;2022-08-21T04:52:10;22.05;;;12.15;;
67248;SDS011;54162;54.300;18.592;2022-08-21T04:54:38;20.45;;;11.77;;
67248;SDS011;54162;54.300;18.592;2022-08-21T04:57:06;22.45;;;12.00;;
67248;SDS011;54162;54.300;18.592;2022-08-21T04:59:37;20.90;;;11.65;;
67248;SDS011;54162;54.300;18.592;2022-08-21T05:02:05;22.35;;;11.55;;
67248;SDS011;54162;54.300;18.592;2022-08-21T05:04:34;20.17;;;12.63;;
67248;SDS011;54162;54.300;18.592;2022-08-21T05:07:04;20.33;;;11.93;;
67248;SDS011;54162;54.300;18.592;2022-08-21T05:09:32;19.80;;;11.75;;
67248;SDS011;54162;54.300;18.592;2022-08-21T05:11:59;20.05;;;11.82;;
67248;SDS011;54162;54.300;18.592;2022-08-21T05:14:26;20.63;;;12.05;;
67248;SDS011;54162;54.300;18.592;2022-08-21T05:16:52;20.33;;;12.07;;
67248;SDS011;54162;54.300;18.592;2022-08-21T05:19:17;20.70;;;11.70;;
67248;SDS011;54162;54.300;18.592;2022-08-21T05:21:44;20.43;;;11.90;;
67248;SDS011;54162;54.300;18.592;2022-08-21T05:24:10;20.52;;;12.25;;
67248;SDS011;54162;54.300;18.592;2022-08-21T05:26:37;18.88;;;11.23;;
67248;SDS011;54162;54.300;18.592;2022-08-21T05:29:03;17.98;;;11.43;;
67248;SDS011;54162;54.300;18.592;2022-08-21T05:31:29;20.20;;;11.13;;
67248;SDS011;54162;54.300;18.592;2022-08-21T05:33:55;17.13;;;10.90;;
67248;SDS011;54162;54.300;18.592;2022-08-21T05:36:22;19.38;;;10.30;;
67248;SDS011;54162;54.300;18.592;2022-08-21T05:38:47;18.20;;;10.57;;
67248;SDS011;54162;54.300;18.592;2022-08-21T05:41:13;19.88;;;10.80;;
67248;SDS011;54162;54.300;18.592;2022-08-21T05:43:38;17.37;;;10.87;;
67248;SDS011;54162;54.300;18.592;2022-08-21T05:46:04;16.60;;;10.70;;
67248;SDS011;54162;54.300;18.592;2022-08-21T05:48:30;16.35;;;9.85;;
67248;SDS011;54162;54.300;18.592;2022-08-21T05:50:57;17.95;;;9.77;;
67248;SDS011;54162;54.300;18.592;2022-08-21T05:53:23;18.15;;;9.50;;
67248;SDS011;54162;54.300;18.592;2022-08-21T05:55:50;13.23;;;8.60;;
67248;SDS011;54162;54.300;18.592;2022-08-21T05:58:17;13.00;;;8.13;;
67248;SDS011;54162;54.300;18.592;2022-08-21T06:00:45;11.68;;;7.78;;
67248;SDS011;54162;54.300;18.592;2022-08-21T06:03:16;11.15;;;7.43;;
67248;SDS011;54162;54.300;18.592;2022-08-21T06:05:44;12.65;;;7.75;;
67248;SDS011;54162;54.300;18.592;2022-08-21T06:08:10;12.07;;;7.43;;
67248;SDS011;54162;54.300;18.592;2022-08-21T06:10:36;12.02;;;7.47;;
67248;SDS011;54162;54.300;18.592;2022-08-21T06:13:02;10.90;;;6.70;;
67248;SDS011;54162;54.300;18.592;2022-08-21T06:15:28;10.20;;;6.63;;
67248;SDS011;54162;54.300;18.592;2022-08-21T06:17:54;11.40;;;6.93;;
67248;SDS011;54162;54.300;18.592;2022-08-21T06:20:19;10.13;;;6.97;;
67248;SDS011;54162;54.300;18.592;2022-08-21T06:22:45;11.48;;;7.40;;
67248;SDS011;54162;54.300;18.592;2022-08-21T06:25:11;8.77;;;6.20;;
67248;SDS011;54162;54.300;18.592;2022-08-21T06:27:36;11.45;;;7.18;;
67248;SDS011;54162;54.300;18.592;2022-08-21T06:30:03;11.50;;;7.30;;
67248;SDS011;54162;54.300;18.592;2022-08-21T06:32:30;11.25;;;7.22;;
67248;SDS011;54162;54.300;18.592;2022-08-21T06:34:56;10.27;;;7.30;;
67248;SDS011;54162;54.300;18.592;2022-08-21T06:37:21;11.60;;;7.43;;
67248;SDS011;54162;54.300;18.592;2022-08-21T06:39:47;12.27;;;7.50;;
67248;SDS011;54162;54.300;18.592;2022-08-21T06:42:16;10.63;;;7.47;;
67248;SDS011;54162;54.300;18.592;2022-08-21T06:44:42;11.40;;;6.88;;
67248;SDS011;54162;54.300;18.592;2022-08-21T06:47:08;11.57;;;6.90;;
67248;SDS011;54162;54.300;18.592;2022-08-21T06:49:34;11.50;;;7.05;;
67248;SDS011;54162;54.300;18.592;2022-08-21T06:52:00;12.13;;;7.75;;
67248;SDS011;54162;54.300;18.592;2022-08-21T06:54:25;10.00;;;6.80;;
67248;SDS011;54162;54.300;18.592;2022-08-21T06:56:51;11.97;;;7.07;;
67248;SDS011;54162;54.300;18.592;2022-08-21T06:59:16;10.07;;;6.95;;
67248;SDS011;54162;54.300;18.592;2022-08-21T07:01:42;12.10;;;6.77;;
67248;SDS011;54162;54.300;18.592;2022-08-21T07:04:07;10.90;;;7.20;;
67248;SDS011;54162;54.300;18.592;2022-08-21T07:06:33;9.25;;;5.80;;
67248;SDS011;54162;54.300;18.592;2022-08-21T07:08:58;8.90;;;5.67;;
67248;SDS011;54162;54.300;18.592;2022-08-21T07:11:26;9.55;;;5.82;;
67248;SDS011;54162;54.300;18.592;2022-08-21T07:13:52;9.13;;;5.40;;
67248;SDS011;54162;54.300;18.592;2022-08-21T07:16:19;11.80;;;5.57;;
67248;SDS011;54162;54.300;18.592;2022-08-21T07:18:46;10.40;;;5.70;;
67248;SDS011;54162;54.300;18.592;2022-08-21T07:21:11;9.02;;;4.90;;
67248;SDS011;54162;54.300;18.592;2022-08-21T07:23:38;10.17;;;5.43;;
67248;SDS011;54162;54.300;18.592;2022-08-21T07:26:07;10.13;;;5.80;;
67248;SDS011;54162;54.300;18.592;2022-08-21T07:28:33;11.23;;;6.18;;
67248;SDS011;54162;54.300;18.592;2022-08-21T07:30:59;10.00;;;5.82;;
67248;SDS011;54162;54.300;18.592;2022-08-21T07:33:26;10.07;;;5.90;;
67248;SDS011;54162;54.300;18.592;2022-08-21T07:35:53;11.32;;;5.80;;
67248;SDS011;54162;54.300;18.592;2022-08-21T07:38:19;9.82;;;6.05;;
67248;SDS011;54162;54.300;18.592;2022-08-21T07:40:45;10.55;;;6.10;;
67248;SDS011;54162;54.300;18.592;2022-08-21T07:43:12;9.90;;;6.10;;
67248;SDS011;54162;54.300;18.592;2022-08-21T07:45:37;11.20;;;6.27;;
67248;SDS011;54162;54.300;18.592;2022-08-21T07:48:03;10.38;;;6.63;;
67248;SDS011;54162;54.300;18.592;2022-08-21T07:50:30;11.90;;;6.33;;
67248;SDS011;54162;54.300;18.592;2022-08-21T07:52:55;9.40;;;5.88;;
67248;SDS011;54162;54.300;18.592;2022-08-21T07:55:22;10.50;;;6.30;;
67248;SDS011;54162;54.300;18.592;2022-08-21T07:57:48;10.35;;;5.85;;
67248;SDS011;54162;54.300;18.592;2022-08-21T08:00:15;10.13;;;6.07;;
67248;SDS011;54162;54.300;18.592;2022-08-21T08:02:45;9.80;;;6.10;;
67248;SDS011;54162;54.300;18.592;2022-08-21T08:05:14;11.18;;;6.43;;
67248;SDS011;54162;54.300;18.592;2022-08-21T08:07:40;10.75;;;5.82;;
67248;SDS011;54162;54.300;18.592;2022-08-21T08:10:07;9.35;;;5.78;;
67248;SDS011;54162;54.300;18.592;2022-08-21T08:12:34;11.20;;;5.60;;
67248;SDS011;54162;54.300;18.592;2022-08-21T08:15:00;10.35;;;5.53;;
67248;SDS011;54162;54.300;18.592;2022-08-21T08:17:27;10.00;;;5.88;;
67248;SDS011;54162;54.300;18.592;2022-08-21T08:19:53;10.35;;;6.00;;
67248;SDS011;54162;54.300;18.592;2022-08-21T08:22:20;10.90;;;5.67;;
67248;SDS011;54162;54.300;18.592;2022-08-21T08:24:49;10.55;;;5.63;;
67248;SDS011;54162;54.300;18.592;2022-08-21T08:27:15;7.68;;;5.28;;
67248;SDS011;54162;54.300;18.592;2022-08-21T08:29:42;8.85;;;5.30;;
67248;SDS011;54162;54.300;18.592;2022-08-21T08:32:08;9.95;;;5.63;;
67248;SDS011;54162;54.300;18.592;2022-08-21T08:34:34;9.33;;;5.67;;
67248;SDS011;54162;54.300;18.592;2022-08-21T08:37:00;10.15;;;5.60;;
67248;SDS011;54162;54.300;18.592;2022-08-21T08:39:26;9.13;;;4.90;;
67248;SDS011;54162;54.300;18.592;2022-08-21T08:44:39;6.85;;;4.55;;
67248;SDS011;54162;54.300;18.592;2022-08-21T08:47:10;8.63;;;4.80;;
67248;SDS011;54162;54.300;18.592;2022-08-21T08:52:35;8.27;;;4.75;;
67248;SDS011;54162;54.300;18.592;2022-08-21T08:57:44;7.30;;;4.28;;
67248;SDS011;54162;54.300;18.592;2022-08-21T09:00:11;7.85;;;5.07;;
67248;SDS011;54162;54.300;18.592;2022-08-21T09:02:39;9.13;;;4.38;;
67248;SDS011;54162;54.300;18.592;2022-08-21T09:05:07;8.75;;;4.28;;
67248;SDS011;54162;54.300;18.592;2022-08-21T09:07:47;7.70;;;4.27;;
67248;SDS011;54162;54.300;18.592;2022-08-21T09:10:57;8.13;;;4.43;;
67248;SDS011;54162;54.300;18.592;2022-08-21T09:19:03;8.00;;;4.25;;
67248;SDS011;54162;54.300;18.592;2022-08-21T09:24:18;7.85;;;4.57;;
67248;SDS011;54162;54.300;18.592;2022-08-21T09:26:57;6.93;;;4.10;;
67248;SDS011;54162;54.300;18.592;2022-08-21T09:29:31;7.45;;;4.63;;
67248;SDS011;54162;54.300;18.592;2022-08-21T09:32:00;7.68;;;4.63;;
67248;SDS011;54162;54.300;18.592;2022-08-21T09:34:26;8.27;;;4.60;;
67248;SDS011;54162;54.300;18.592;2022-08-21T09:36:54;9.15;;;5.05;;
67248;SDS011;54162;54.300;18.592;2022-08-21T09:39:24;8.98;;;4.90;;
67248;SDS011;54162;54.300;18.592;2022-08-21T09:42:01;8.80;;;4.70;;
67248;SDS011;54162;54.300;18.592;2022-08-21T09:44:30;7.78;;;4.78;;
67248;SDS011;54162;54.300;18.592;2022-08-21T09:47:01;9.55;;;4.40;;
67248;SDS011;54162;54.300;18.592;2022-08-21T09:49:36;9.23;;;4.60;;
67248;SDS011;54162;54.300;18.592;2022-08-21T09:52:04;8.52;;;4.55;;
67248;SDS011;54162;54.300;18.592;2022-08-21T09:54:40;8.32;;;4.75;;
67248;SDS011;54162;54.300;18.592;2022-08-21T09:59:53;7.45;;;4.45;;
67248;SDS011;54162;54.300;18.592;2022-08-21T10:02:27;7.03;;;4.60;;
67248;SDS011;54162;54.300;18.592;2022-08-21T10:07:26;8.23;;;4.68;;
67248;SDS011;54162;54.300;18.592;2022-08-21T10:10:01;9.32;;;4.95;;
67248;SDS011;54162;54.300;18.592;2022-08-21T10:15:47;8.77;;;4.50;;
67248;SDS011;54162;54.300;18.592;2022-08-21T10:21:04;8.05;;;4.57;;
67248;SDS011;54162;54.300;18.592;2022-08-21T10:31:53;7.10;;;3.83;;
67248;SDS011;54162;54.300;18.592;2022-08-21T10:40:24;9.23;;;4.18;;
67248;SDS011;54162;54.300;18.592;2022-08-21T10:43:01;7.82;;;4.20;;
67248;SDS011;54162;54.300;18.592;2022-08-21T10:51:04;7.60;;;4.20;;
67248;SDS011;54162;54.300;18.592;2022-08-21T10:56:16;8.10;;;4.40;;
67248;SDS011;54162;54.300;18.592;2022-08-21T10:58:54;9.15;;;4.40;;
67248;SDS011;54162;54.300;18.592;2022-08-21T11:01:53;9.02;;;3.88;;
67248;SDS011;54162;54.300;18.592;2022-08-21T11:04:21;8.55;;;3.88;;
67248;SDS011;54162;54.300;18.592;2022-08-21T11:07:11;7.95;;;3.95;;
67248;SDS011;54162;54.300;18.592;2022-08-21T11:09:50;5.43;;;3.40;;
67248;SDS011;54162;54.300;18.592;2022-08-21T11:12:22;7.63;;;3.35;;
67248;SDS011;54162;54.300;18.592;2022-08-21T11:14:56;5.78;;;3.03;;
67248;SDS011;54162;54.300;18.592;2022-08-21T11:17:31;6.47;;;3.38;;
67248;SDS011;54162;54.300;18.592;2022-08-21T11:22:53;6.25;;;3.60;;
67248;SDS011;54162;54.300;18.592;2022-08-21T11:25:27;6.80;;;3.30;;
67248;SDS011;54162;54.300;18.592;2022-08-21T11:28:02;5.78;;;3.28;;
67248;SDS011;54162;54.300;18.592;2022-08-21T11:30:39;6.20;;;3.30;;
67248;SDS011;54162;54.300;18.592;2022-08-21T11:42:55;8.63;;;3.70;;
67248;SDS011;54162;54.300;18.592;2022-08-21T11:51:10;7.97;;;3.60;;
67248;SDS011;54162;54.300;18.592;2022-08-21T11:53:40;9.13;;;3.70;;
67248;SDS011;54162;54.300;18.592;2022-08-21T11:56:26;8.43;;;3.30;;
67248;SDS011;54162;54.300;18.592;2022-08-21T11:58:59;5.68;;;3.17;;
67248;SDS011;54162;54.300;18.592;2022-08-21T12:01:30;7.88;;;3.40;;
67248;SDS011;54162;54.300;18.592;2022-08-21T12:04:01;7.10;;;3.30;;
67248;SDS011;54162;54.300;18.592;2022-08-21T12:06:28;6.82;;;3.22;;
67248;SDS011;54162;54.300;18.592;2022-08-21T12:09:00;8.20;;;3.22;;
67248;SDS011;54162;54.300;18.592;2022-08-21T12:11:28;7.65;;;2.85;;
67248;SDS011;54162;54.300;18.592;2022-08-21T12:13:59;6.35;;;3.03;;
67248;SDS011;54162;54.300;18.592;2022-08-21T12:21:47;5.40;;;2.72;;
67248;SDS011;54162;54.300;18.592;2022-08-21T12:24:18;8.40;;;2.65;;
67248;SDS011;54162;54.300;18.592;2022-08-21T12:26:57;6.00;;;2.65;;
67248;SDS011;54162;54.300;18.592;2022-08-21T12:29:28;7.40;;;2.15;;
67248;SDS011;54162;54.300;18.592;2022-08-21T12:32:04;4.85;;;2.10;;
67248;SDS011;54162;54.300;18.592;2022-08-21T12:34:57;5.72;;;2.35;;
67248;SDS011;54162;54.300;18.592;2022-08-21T12:40:36;4.63;;;2.15;;
67248;SDS011;54162;54.300;18.592;2022-08-21T12:43:02;5.00;;;2.10;;
67248;SDS011;54162;54.300;18.592;2022-08-21T12:45:31;6.72;;;2.40;;
67248;SDS011;54162;54.300;18.592;2022-08-21T12:50:50;4.82;;;2.40;;
67248;SDS011;54162;54.300;18.592;2022-08-21T12:53:40;7.13;;;2.60;;
67248;SDS011;54162;54.300;18.592;2022-08-21T12:56:31;5.20;;;2.53;;
67248;SDS011;54162;54.300;18.592;2022-08-21T12:59:02;6.97;;;2.75;;
67248;SDS011;54162;54.300;18.592;2022-08-21T13:01:33;7.47;;;2.90;;
67248;SDS011;54162;54.300;18.592;2022-08-21T13:04:02;5.82;;;2.60;;
67248;SDS011;54162;54.300;18.592;2022-08-21T13:06:36;6.63;;;2.70;;
67248;SDS011;54162;54.300;18.592;2022-08-21T13:09:05;7.72;;;2.90;;
67248;SDS011;54162;54.300;18.592;2022-08-21T13:11:34;8.07;;;2.60;;
67248;SDS011;54162;54.300;18.592;2022-08-21T13:14:01;6.70;;;2.70;;
67248;SDS011;54162;54.300;18.592;2022-08-21T13:16:31;6.82;;;2.67;;
67248;SDS011;54162;54.300;18.592;2022-08-21T13:21:38;5.83;;;2.80;;
67248;SDS011;54162;54.300;18.592;2022-08-21T13:24:08;6.63;;;2.60;;
67248;SDS011;54162;54.300;18.592;2022-08-21T13:27:01;5.50;;;2.03;;
67248;SDS011;54162;54.300;18.592;2022-08-21T13:29:28;5.75;;;2.10;;
67248;SDS011;54162;54.300;18.592;2022-08-21T13:31:58;5.47;;;2.15;;
67248;SDS011;54162;54.300;18.592;2022-08-21T13:34:34;7.83;;;2.30;;
67248;SDS011;54162;54.300;18.592;2022-08-21T13:37:06;6.72;;;2.20;;
67248;SDS011;54162;54.300;18.592;2022-08-21T13:39:33;6.05;;;2.35;;
67248;SDS011;54162;54.300;18.592;2022-08-21T13:42:00;5.97;;;2.17;;
67248;SDS011;54162;54.300;18.592;2022-08-21T13:44:35;5.93;;;2.20;;
67248;SDS011;54162;54.300;18.592;2022-08-21T13:47:05;4.70;;;2.00;;
67248;SDS011;54162;54.300;18.592;2022-08-21T13:49:32;4.68;;;2.10;;
67248;SDS011;54162;54.300;18.592;2022-08-21T13:52:00;5.43;;;2.25;;
67248;SDS011;54162;54.300;18.592;2022-08-21T13:54:26;5.33;;;2.60;;
67248;SDS011;54162;54.300;18.592;2022-08-21T13:57:03;7.20;;;2.78;;
67248;SDS011;54162;54.300;18.592;2022-08-21T13:59:33;6.82;;;2.53;;
67248;SDS011;54162;54.300;18.592;2022-08-21T14:02:17;6.28;;;2.60;;
67248;SDS011;54162;54.300;18.592;2022-08-21T14:04:51;5.40;;;2.90;;
67248;SDS011;54162;54.300;18.592;2022-08-21T14:07:20;4.53;;;2.42;;
67248;SDS011;54162;54.300;18.592;2022-08-21T14:09:52;7.63;;;2.50;;
67248;SDS011;54162;54.300;18.592;2022-08-21T14:12:23;5.53;;;2.47;;
67248;SDS011;54162;54.300;18.592;2022-08-21T14:14:51;6.75;;;2.63;;
67248;SDS011;54162;54.300;18.592;2022-08-21T14:17:31;6.80;;;2.77;;
67248;SDS011;54162;54.300;18.592;2022-08-21T14:19:59;6.78;;;2.80;;
67248;SDS011;54162;54.300;18.592;2022-08-21T14:25:11;5.90;;;2.70;;
67248;SDS011;54162;54.300;18.592;2022-08-21T14:27:50;5.03;;;2.55;;
67248;SDS011;54162;54.300;18.592;2022-08-21T14:30:27;8.65;;;2.70;;
67248;SDS011;54162;54.300;18.592;2022-08-21T14:32:59;7.45;;;2.60;;
67248;SDS011;54162;54.300;18.592;2022-08-21T14:35:26;5.32;;;2.60;;
67248;SDS011;54162;54.300;18.592;2022-08-21T14:37:52;6.70;;;2.67;;
67248;SDS011;54162;54.300;18.592;2022-08-21T14:40:19;8.13;;;2.92;;
67248;SDS011;54162;54.300;18.592;2022-08-21T14:42:46;7.60;;;2.80;;
67248;SDS011;54162;54.300;18.592;2022-08-21T14:45:15;5.15;;;2.97;;
67248;SDS011;54162;54.300;18.592;2022-08-21T14:47:43;6.55;;;2.80;;
67248;SDS011;54162;54.300;18.592;2022-08-21T14:50:10;5.90;;;2.73;;
67248;SDS011;54162;54.300;18.592;2022-08-21T14:52:37;6.05;;;2.40;;
67248;SDS011;54162;54.300;18.592;2022-08-21T14:55:04;6.82;;;3.00;;
67248;SDS011;54162;54.300;18.592;2022-08-21T14:57:31;8.38;;;2.92;;
67248;SDS011;54162;54.300;18.592;2022-08-21T14:59:57;7.30;;;2.88;;
67248;SDS011;54162;54.300;18.592;2022-08-21T15:02:24;6.30;;;2.75;;
67248;SDS011;54162;54.300;18.592;2022-08-21T15:04:49;5.30;;;2.30;;
67248;SDS011;54162;54.300;18.592;2022-08-21T15:07:14;4.13;;;1.80;;
67248;SDS011;54162;54.300;18.592;2022-08-21T15:09:40;4.55;;;1.98;;
67248;SDS011;54162;54.300;18.592;2022-08-21T15:12:05;4.63;;;1.90;;
67248;SDS011;54162;54.300;18.592;2022-08-21T15:14:33;4.72;;;2.00;;
67248;SDS011;54162;54.300;18.592;2022-08-21T15:17:01;5.45;;;1.90;;
67248;SDS011;54162;54.300;18.592;2022-08-21T15:19:28;5.95;;;1.80;;
67248;SDS011;54162;54.300;18.592;2022-08-21T15:21:54;5.30;;;2.17;;
67248;SDS011;54162;54.300;18.592;2022-08-21T15:24:20;5.20;;;2.15;;
67248;SDS011;54162;54.300;18.592;2022-08-21T15:26:46;5.37;;;2.30;;
67248;SDS011;54162;54.300;18.592;2022-08-21T15:29:12;5.20;;;2.30;;
67248;SDS011;54162;54.300;18.592;2022-08-21T15:31:49;6.35;;;2.40;;
67248;SDS011;54162;54.300;18.592;2022-08-21T15:34:17;5.43;;;2.40;;
67248;SDS011;54162;54.300;18.592;2022-08-21T15:36:43;6.45;;;2.50;;
67248;SDS011;54162;54.300;18.592;2022-08-21T15:39:08;6.35;;;2.55;;
67248;SDS011;54162;54.300;18.592;2022-08-21T15:41:34;6.05;;;2.50;;
67248;SDS011;54162;54.300;18.592;2022-08-21T15:43:59;8.17;;;2.90;;
67248;SDS011;54162;54.300;18.592;2022-08-21T15:46:25;5.93;;;3.00;;
67248;SDS011;54162;54.300;18.592;2022-08-21T15:48:50;8.15;;;2.90;;
67248;SDS011;54162;54.300;18.592;2022-08-21T15:51:16;8.93;;;3.40;;
67248;SDS011;54162;54.300;18.592;2022-08-21T15:53:42;8.02;;;2.97;;
67248;SDS011;54162;54.300;18.592;2022-08-21T15:56:11;8.75;;;2.90;;
67248;SDS011;54162;54.300;18.592;2022-08-21T15:58:51;11.20;;;3.47;;